Flight Track Log - Related Links

Times and Time Zones

All times are in EDT time to prevent confusion due to time zone crossing. See the FDX1260 flight status page for this flight to view local times or setup timezone preferences in your user account.

Time Position Orientation Groundspeed Altitude Reporting Facility
EDT Latitude Longitude Course Direction KTS MPH feet Rate Location/Type
Fri 11:14:52 PM 39.0120 -84.9000 230° Southwest 13,200  Level FlightAware ADS-B
Fri 11:15:28 PM 38.9730 -84.9660 233° Southwest 470 541 15,600 3,618 Climbing FlightAware ADS-B
Fri 11:16:00 PM 38.9390 -85.0240 233° Southwest 358 412 17,300 3,353 Climbing FlightAware ADS-B
Fri 11:16:36 PM 38.8940 -85.0930 230° Southwest 347 399 19,400 3,083 Climbing FlightAware ADS-B
Fri 11:17:12 PM 38.8360 -85.1420 213° Southwest 463 533 21,000 2,833 Climbing FlightAware ADS-B
Fri 11:17:48 PM 38.7700 -85.1900 210° Southwest 499 574 22,800 2,735 Climbing FlightAware ADS-B
Fri 11:18:20 PM 38.7130 -85.2300 209° Southwest 391 450 24,100 2,294 Climbing FlightAware ADS-B
Fri 11:18:56 PM 38.6430 -85.2780 208° Southwest 424 488 25,400 2,914 Climbing FlightAware ADS-B
Fri 11:19:30 PM 38.5770 -85.3240 209° Southwest 477 549 27,500 3,583 Climbing FlightAware ADS-B
Fri 11:20:08 PM 38.5090 -85.3710 208° Southwest 543 625 29,700 3,000 Climbing FlightAware ADS-B
Fri 11:20:40 PM 38.4530 -85.4100 209° Southwest 386 444 31,000 1,971 Climbing FlightAware ADS-B
Fri 11:21:18 PM 38.3790 -85.4610 208° Southwest 648 746 32,000 811 Climbing FlightAware ADS-B
Fri 11:21:54 PM 38.3110 -85.5080 208° Southwest 564 649 32,000  Level FlightAware ADS-B
Fri 11:22:25 PM 38.2620 -85.5420 209° Southwest 353 406 32,000  Level FlightAware ADS-B
Fri 11:23:00 PM 38.1980 -85.5860 208° Southwest 427 491 32,000  Level FlightAware ADS-B
Fri 11:23:35 PM 38.1350 -85.6290 208° Southwest 301 346 32,000  Level FlightAware ADS-B
Fri 11:24:10 PM 38.0730 -85.6710 208° Southwest 487 560 32,000  Level FlightAware ADS-B
Fri 11:24:45 PM 38.0070 -85.7170 209° Southwest 409 471 32,000  Level FlightAware ADS-B
Fri 11:25:20 PM 37.9390 -85.7640 209° Southwest 627 722 32,000  Level FlightAware ADS-B
Fri 11:25:55 PM 37.8770 -85.8060 208° Southwest 524 603 32,000  Level FlightAware ADS-B
Fri 11:26:30 PM 37.8120 -85.8500 208° Southwest 491 565 32,000  Level FlightAware ADS-B
Fri 11:27:05 PM 37.7490 -85.8940 209° Southwest 515 593 32,000  Level FlightAware ADS-B
Fri 11:27:40 PM 37.6840 -85.9370 208° Southwest 467 537 32,000  Level FlightAware ADS-B
Fri 11:28:15 PM 37.6200 -85.9810 209° Southwest 488 562 32,000  Level FlightAware ADS-B
Fri 11:28:50 PM 37.5570 -86.0240 208° Southwest 412 474 32,000  Level FlightAware ADS-B
Fri 11:29:25 PM 37.4857 -86.0716 208° Southwest 456 525 32,000  Level FlightAware ADS-B
Fri 11:30:05 PM 37.4160 -86.1180 208° Southwest 348 400 32,000  Level FlightAware ADS-B
Fri 11:30:40 PM 37.3500 -86.1620 208° Southwest 315 362 32,000  Level FlightAware ADS-B
Fri 11:31:08 PM 37.2938 -86.2001 208° Southwest 32,000  Level FlightAware ADS-B
Fri 11:32:00 PM 37.1990 -86.2630 208° Southwest 488 562 32,000  Level FlightAware ADS-B
Fri 11:32:32 PM 37.1420 -86.3020 209° Southwest 363 418 32,000  Level FlightAware ADS-B
Fri 11:33:09 PM 37.0700 -86.3490 208° Southwest 434 499 32,000  Level FlightAware ADS-B
Fri 11:33:39 PM 37.0138 -86.3869 208° Southwest 455 524 32,000  Level FlightAware ADS-B
Fri 11:34:10 PM 36.9594 -86.4284 211° Southwest 456 525 32,000  Level FlightAware ADS-B
Fri 11:34:48 PM 36.8986 -86.4902 219° Southwest 446 513 32,000  Level FlightAware ADS-B
Fri 11:35:21 PM 36.8519 -86.5527 227° Southwest 442 509 32,000  Level FlightAware ADS-B
Fri 11:35:54 PM 36.8092 -86.6178 231° Southwest 456 525 32,000  Level FlightAware ADS-B
Fri 11:36:47 PM 36.7407 -86.7204 230° Southwest 440 506 32,000  Level FlightAware ADS-B
Fri 11:37:28 PM 36.6864 -86.8001 230° Southwest 443 510 32,000  Level FlightAware ADS-B
Fri 11:37:59 PM 36.6450 -86.8600 229° Southwest 426 490 32,000  Level FlightAware ADS-B
Fri 11:38:35 PM 36.5970 -86.9300 230° Southwest 514 592 32,000  Level FlightAware ADS-B
Fri 11:39:07 PM 36.5550 -86.9920 230° Southwest 362 417 32,000 -353 Level FlightAware ADS-B
Fri 11:39:43 PM 36.5060 -87.0630 229° Southwest 498 573 31,600 -771 Descending FlightAware ADS-B
Fri 11:40:17 PM 36.4600 -87.1310 230° Southwest 388 447 31,100 -1,029 Descending FlightAware ADS-B
Fri 11:40:53 PM 36.4070 -87.2060 229° Southwest 544 626 30,400 -917 Descending FlightAware ADS-B
Fri 11:41:29 PM 36.3580 -87.2780 230° Southwest 524 603 30,000 -353 Descending FlightAware ADS-B
Fri 11:42:01 PM 36.3120 -87.3460 230° Southwest 389 448 30,000  Level FlightAware ADS-B
Fri 11:42:37 PM 36.2590 -87.4210 229° Southwest 495 570 30,000  Level FlightAware ADS-B
Fri 11:43:13 PM 36.2080 -87.4940 229° Southwest 515 593 30,000  Level FlightAware ADS-B
Fri 11:43:49 PM 36.1550 -87.5710 230° Southwest 535 616 30,000  Level FlightAware ADS-B
Fri 11:44:21 PM 36.1090 -87.6360 229° Southwest 399 459 30,000  Level FlightAware ADS-B
Fri 11:44:59 PM 36.0570 -87.7110 229° Southwest 506 582 30,000  Level FlightAware ADS-B
Fri 11:45:35 PM 36.0040 -87.7870 229° Southwest 518 596 30,000  Level FlightAware ADS-B
Fri 11:46:07 PM 35.9570 -87.8530 229° Southwest 382 440 30,000  Level FlightAware ADS-B
Fri 11:46:41 PM 35.9090 -87.9210 229° Southwest 430 495 30,000  Level FlightAware ADS-B
Fri 11:47:17 PM 35.8580 -87.9930 229° Southwest 483 556 30,000 -556 Level FlightAware ADS-B
Fri 11:48:29 PM 35.7560 -88.1370 229° Southwest 455 524 29,000 -1,822 Descending FlightAware ADS-B
Fri 11:49:32 PM 35.6797 -88.2408 229° Southwest 451 519 25,900 -2,049 Descending Memphis Center
Fri 11:50:32 PM 35.5981 -88.3578 229° Southwest 451 519 24,800 -1,200 Descending Memphis Center
Fri 11:51:32 PM 35.5183 -88.4592 226° Southwest 437 503 23,500 -1,950 Descending Memphis Center
Fri 11:52:32 PM 35.4406 -88.5578 226° Southwest 419 482 20,900 -2,600 Descending Memphis Center
Fri 11:53:32 PM 35.3567 -88.6667 227° Southwest 402 463 18,300 -2,300 Descending Memphis Center
Fri 11:54:32 PM 35.2828 -88.7547 224° Southwest 389 448 16,300 -2,000 Descending Memphis Center
Fri 11:55:32 PM 35.2131 -88.8450 227° Southwest 376 433 14,300 -1,850 Descending Memphis Center
Fri 11:56:32 PM 35.1492 -88.9222 225° Southwest 365 420 12,600 -1,700 Descending Memphis Center
Fri 11:57:32 PM 35.0833 -89.0044 226° Southwest 352 405 10,900 -1,400 Descending Memphis Center
Fri 11:58:32 PM 35.0364 -89.0889 236° Southwest 335 386 9,800 -950 Descending Memphis Center
Fri 11:59:32 PM 35.0372 -89.1828 271° West 283 326 9,000 -800 Descending Memphis Center
Sat 12:00:32 AM 35.0400 -89.2639 272° West 250 288 8,200 -1,000 Descending Memphis Center
Sat 12:01:32 AM 35.0408 -89.3425 271° West 240 276 7,000 -1,050 Descending Memphis Center
Sat 12:02:32 AM 35.0433 -89.4211 272° West 235 270 6,100 -500 Descending Memphis Center
Sat 12:03:32 AM 35.0419 -89.4947 269° West 229 264 6,000 -600 Descending Memphis Center
Sat 12:04:32 AM 35.0467 -89.5936 273° West 250 288 4,900 -950 Descending Memphis Center
Sat 12:05:32 AM 35.0556 -89.6772 277° West 256 295 4,100 -900 Descending Memphis Center
Sat 12:06:32 AM 35.0517 -89.7508 266° West 238 274 3,100 -700 Descending Memphis Center
Sat 12:07:32 AM 35.0561 -89.8117 275° West 206 237 2,700 -700 Descending Memphis Center
Sat 12:08:32 AM 35.0564 -89.8700 270° West 183 211 1,700 -835 Descending Memphis Center
Sat 12:09:27 AM 35.0500 -89.9167 261° West 132 152 1,100 9,433 Descending KMEM
Sat 12:11:32 AM 35.0589 -90.0044 277° West 140 161 30,000 9,373 Climbing Memphis Center
Sat 12:12:32 AM 35.0592 -90.0475 270° West 140 161 30,000  Level Memphis Center
Sat 12:14:00 AM 35.0424 -89.9767 270° West  Level Estimated
Sat 12:21:00 AM 35.0424 -89.9767 270° West  Level Estimated
Sat 12:22:00 AM 35.0424 -89.9767 270° West  Level Estimated
Sat 12:23:00 AM 35.0424 -89.9767 270° West  Level Estimated
Sat 12:24:00 AM 35.0424 -89.9767 270° West  Level Estimated
Sat 12:25:00 AM 35.0424 -89.9767 270° West  Level Estimated
Sat 12:26:00 AM 35.0424 -89.9767 270° West  Level Estimated

Login

Don't have an account? Register now (free) for customized features, flight alerts, and more!